createdAt,value
2022-08-09T00:00:04.781Z,9.719300
2022-08-09T00:01:02.325Z,9.719349
2022-08-09T00:02:01.299Z,9.719301
2022-08-09T00:03:01.237Z,9.719337
2022-08-09T00:04:15.137Z,9.719307
2022-08-09T00:06:18.633Z,9.719419
2022-08-09T00:06:18.782Z,9.719524
2022-08-09T00:07:02.204Z,9.719497
2022-08-09T00:08:01.449Z,9.719324
2022-08-09T00:09:01.191Z,9.719330
2022-08-09T00:10:01.172Z,9.719369
2022-08-09T00:11:05.625Z,9.719397
2022-08-09T00:12:04.547Z,9.719372
2022-08-09T00:13:01.140Z,9.719326
2022-08-09T00:14:01.140Z,9.719465
2022-08-09T00:15:06.741Z,9.719495
2022-08-09T00:16:03.025Z,9.719577
2022-08-09T00:17:01.098Z,9.719438
2022-08-09T00:18:10.869Z,9.719296
2022-08-09T00:19:02.389Z,9.719140
2022-08-09T00:20:02.077Z,9.718966
2022-08-09T00:21:01.076Z,9.719144
2022-08-09T00:22:01.082Z,9.719078
2022-08-09T00:23:08.382Z,9.719251
2022-08-09T00:24:02.047Z,9.719087
2022-08-09T00:25:01.035Z,9.719073
2022-08-09T00:26:01.006Z,9.719037
2022-08-09T00:27:01.000Z,9.718999
2022-08-09T00:28:01.005Z,9.719049
2022-08-09T00:29:01.006Z,9.719229
2022-08-09T00:30:16.113Z,9.719126
2022-08-09T00:31:01.958Z,9.719096
2022-08-09T00:32:01.963Z,9.719085
2022-08-09T00:33:00.966Z,9.719017
2022-08-09T00:34:00.932Z,9.719036
2022-08-09T00:35:00.908Z,9.719181
2022-08-09T00:36:00.929Z,9.719297
2022-08-09T00:37:32.796Z,9.719125
2022-08-09T00:38:00.871Z,9.719237
2022-08-09T00:39:00.890Z,9.719153
2022-08-09T00:40:12.391Z,9.719207
2022-08-09T00:41:01.914Z,9.719211
2022-08-09T00:44:15.386Z,9.719357
2022-08-09T00:44:16.133Z,9.719380
2022-08-09T00:44:16.565Z,9.719290
2022-08-09T00:45:03.812Z,9.719288
2022-08-09T00:46:01.813Z,9.719257
2022-08-09T00:47:05.109Z,9.719148
2022-08-09T00:48:00.778Z,9.719182
2022-08-09T00:49:00.932Z,9.719245
2022-08-09T00:50:00.775Z,9.719237
2022-08-09T00:51:00.749Z,9.719197
2022-08-09T00:52:05.204Z,9.719101
2022-08-09T00:53:00.732Z,9.719187
2022-08-09T00:54:01.703Z,9.719140
2022-08-09T00:55:01.228Z,9.719110
2022-08-09T00:56:05.368Z,9.719135
2022-08-09T00:57:01.698Z,9.719187
2022-08-09T00:58:00.667Z,9.719124
2022-08-09T00:59:00.665Z,9.719212
2022-08-09T01:00:00.830Z,9.719166
2022-08-09T01:01:00.710Z,9.719154
2022-08-09T01:02:00.676Z,9.719151
2022-08-09T01:03:00.654Z,9.719169
2022-08-09T01:04:00.612Z,9.719234
2022-08-09T01:05:02.498Z,9.719226
2022-08-09T01:06:03.770Z,9.719217
2022-08-09T01:07:01.575Z,9.719227
2022-08-09T01:08:01.497Z,9.719247
2022-08-09T01:09:01.868Z,9.719211
2022-08-09T01:10:00.574Z,9.719135
2022-08-09T01:11:00.548Z,9.719236
2022-08-09T01:12:00.533Z,9.719236
2022-08-09T01:13:00.559Z,9.719267
2022-08-09T01:14:02.010Z,9.719293
2022-08-09T01:15:01.516Z,9.719249
2022-08-09T01:16:00.506Z,9.719234
2022-08-09T01:17:00.510Z,9.719159
2022-08-09T01:18:00.471Z,9.719210
2022-08-09T01:19:04.412Z,9.719151
2022-08-09T01:20:02.538Z,9.719254
2022-08-09T01:21:00.440Z,9.719277
2022-08-09T01:22:00.465Z,9.719321
2022-08-09T01:23:00.439Z,9.719228
2022-08-09T01:24:03.284Z,9.719171
2022-08-09T01:25:00.782Z,9.719179
2022-08-09T01:26:00.442Z,9.719232
2022-08-09T01:27:00.401Z,9.719196
2022-08-09T01:28:00.373Z,9.719276
2022-08-09T01:29:00.358Z,9.719227
2022-08-09T01:30:01.358Z,9.719302
2022-08-09T01:31:00.370Z,9.719222
2022-08-09T01:32:31.998Z,9.719154
2022-08-09T01:33:01.320Z,9.719195
2022-08-09T01:34:00.316Z,9.719213
2022-08-09T01:35:00.305Z,9.719105
2022-08-09T01:36:01.327Z,9.719166
2022-08-09T01:37:00.295Z,9.719242
2022-08-09T01:38:08.291Z,9.719269
2022-08-09T01:39:00.274Z,9.719214
2022-08-09T01:40:00.246Z,9.719214
2022-08-09T01:41:03.080Z,9.719160
2022-08-09T01:42:04.017Z,9.719283
2022-08-09T01:43:01.242Z,9.719277
2022-08-09T01:44:00.206Z,9.719281
2022-08-09T01:45:00.235Z,9.719323
2022-08-09T01:46:00.189Z,9.719205
2022-08-09T01:47:00.202Z,9.719355
2022-08-09T01:48:00.173Z,9.719371
2022-08-09T01:49:10.744Z,9.719417
2022-08-09T01:50:01.170Z,9.719431
2022-08-09T01:51:00.151Z,9.719227
2022-08-09T01:52:07.569Z,9.719201
2022-08-09T01:53:01.130Z,9.719144
2022-08-09T01:54:01.143Z,9.719123
2022-08-09T01:55:00.097Z,9.719373
2022-08-09T01:56:00.093Z,9.719416
2022-08-09T01:57:00.098Z,9.719470
2022-08-09T01:58:00.080Z,9.719384
2022-08-09T01:59:00.115Z,9.719408
2022-08-09T02:00:09.142Z,9.719233
2022-08-09T02:01:01.202Z,9.718993
2022-08-09T02:02:01.238Z,9.719237
2022-08-09T02:03:01.032Z,9.719408
2022-08-09T02:04:00.021Z,9.719482
2022-08-09T02:05:04.486Z,9.719296
2022-08-09T02:06:06.541Z,9.719329
2022-08-09T02:07:02.732Z,9.719461
2022-08-09T02:08:39.947Z,9.719499
2022-08-09T02:09:00.957Z,9.719425
2022-08-09T02:10:01.457Z,9.719430
2022-08-09T02:10:59.958Z,9.719361
2022-08-09T02:11:59.930Z,9.719300
2022-08-09T02:12:59.912Z,9.719411
2022-08-09T02:14:07.405Z,9.719340
2022-08-09T02:15:00.896Z,9.719284
2022-08-09T02:15:59.910Z,9.719243
2022-08-09T02:17:29.381Z,9.719323
2022-08-09T02:18:10.373Z,9.719308
2022-08-09T02:18:59.865Z,9.719304
2022-08-09T02:20:01.123Z,9.719357
2022-08-09T02:21:00.308Z,9.719329
2022-08-09T02:21:59.828Z,9.719352
2022-08-09T02:22:59.820Z,9.719306
2022-08-09T02:23:59.827Z,9.719296
2022-08-09T02:24:59.807Z,9.719228
2022-08-09T02:25:59.825Z,9.719197
2022-08-09T02:26:59.792Z,9.719235
2022-08-09T02:28:03.761Z,9.719236
2022-08-09T02:29:00.095Z,9.719222
2022-08-09T02:29:59.760Z,9.719308
2022-08-09T02:30:59.756Z,9.719373
2022-08-09T02:31:59.741Z,9.719312
2022-08-09T02:32:59.754Z,9.719473
2022-08-09T02:34:13.354Z,9.719450
2022-08-09T02:35:00.713Z,9.719352
2022-08-09T02:36:02.838Z,9.719160
2022-08-09T02:36:59.689Z,9.719259
2022-08-09T02:37:59.680Z,9.719334
2022-08-09T02:38:59.675Z,9.719322
2022-08-09T02:40:01.725Z,9.719281
2022-08-09T02:40:59.643Z,9.719207
2022-08-09T02:41:59.652Z,9.719185
2022-08-09T02:43:00.100Z,9.719233
2022-08-09T02:43:59.646Z,9.719238
2022-08-09T02:44:59.615Z,9.719361
2022-08-09T02:45:59.603Z,9.719335
2022-08-09T02:46:59.594Z,9.719278
2022-08-09T02:47:59.808Z,9.719259
2022-08-09T02:48:59.582Z,9.719273
2022-08-09T02:50:01.575Z,9.719289
2022-08-09T02:50:59.555Z,9.719313
2022-08-09T02:51:59.588Z,9.719268
2022-08-09T02:52:59.540Z,9.719191
2022-08-09T02:54:00.318Z,9.719193
2022-08-09T02:54:59.511Z,9.719375
2022-08-09T02:55:59.525Z,9.719310
2022-08-09T02:56:59.488Z,9.719285
2022-08-09T02:58:35.629Z,9.719293
2022-08-09T02:59:00.484Z,9.719287
2022-08-09T03:00:21.441Z,9.719202
2022-08-09T03:01:04.162Z,9.719316
2022-08-09T03:02:06.224Z,9.719292
2022-08-09T03:03:00.352Z,9.719406
2022-08-09T03:04:17.158Z,9.719399
2022-08-09T03:05:00.429Z,9.719329
2022-08-09T03:05:59.395Z,9.719258
2022-08-09T03:06:59.752Z,9.719422
2022-08-09T03:08:00.382Z,9.719408
2022-08-09T03:08:59.363Z,9.719346
2022-08-09T03:10:00.644Z,9.719330
2022-08-09T03:10:59.365Z,9.719384
2022-08-09T03:12:06.054Z,9.719369
2022-08-09T03:12:59.322Z,9.719260
2022-08-09T03:14:01.645Z,9.719324
2022-08-09T03:14:59.329Z,9.719455
2022-08-09T03:16:06.056Z,9.719397
2022-08-09T03:17:01.726Z,9.719681
2022-08-09T03:17:59.271Z,9.719752
2022-08-09T03:19:01.804Z,9.719490
2022-08-09T03:20:03.366Z,9.719406
2022-08-09T03:21:01.248Z,9.719430
2022-08-09T03:21:59.238Z,9.719286
2022-08-09T03:23:14.592Z,9.719161
2022-08-09T03:24:03.730Z,9.719432
2022-08-09T03:25:06.652Z,9.719398
2022-08-09T03:26:03.616Z,9.719350
2022-08-09T03:27:00.180Z,9.719424
2022-08-09T03:27:59.183Z,9.719448
2022-08-09T03:28:59.160Z,9.719323
2022-08-09T03:30:01.258Z,9.719248
2022-08-09T03:30:59.140Z,9.719322
2022-08-09T03:32:00.865Z,9.719211
2022-08-09T03:32:59.140Z,9.719173
2022-08-09T03:33:59.112Z,9.719201
2022-08-09T03:34:59.089Z,9.719191
2022-08-09T03:36:15.707Z,9.719205
2022-08-09T03:37:02.475Z,9.719171
2022-08-09T03:38:00.069Z,9.719147
2022-08-09T03:38:59.057Z,9.719193
2022-08-09T03:39:59.134Z,9.719256
2022-08-09T03:40:59.056Z,9.719156
2022-08-09T03:42:05.981Z,9.719168
2022-08-09T03:42:59.039Z,9.719193
2022-08-09T03:44:08.119Z,9.719180
2022-08-09T03:44:58.997Z,9.719219
2022-08-09T03:46:05.126Z,9.719154
2022-08-09T03:46:59.976Z,9.719123
2022-08-09T03:47:58.992Z,9.719147
2022-08-09T03:48:58.950Z,9.719185
2022-08-09T03:49:59.057Z,9.719167
2022-08-09T03:50:58.945Z,9.719150
2022-08-09T03:52:00.034Z,9.719157
2022-08-09T03:52:59.061Z,9.719174
2022-08-09T03:53:59.021Z,9.719077
2022-08-09T03:54:58.897Z,9.719172
2022-08-09T03:55:58.891Z,9.719213
2022-08-09T03:56:58.879Z,9.719185
2022-08-09T03:58:09.862Z,9.719179
2022-08-09T03:58:58.851Z,9.719175
2022-08-09T04:00:00.702Z,9.719225
2022-08-09T04:00:58.885Z,9.719122
2022-08-09T04:01:59.015Z,9.719169
2022-08-09T04:02:58.815Z,9.719155
2022-08-09T04:04:01.102Z,9.719176
2022-08-09T04:04:59.057Z,9.719116
2022-08-09T04:05:58.802Z,9.719081
2022-08-09T04:06:58.829Z,9.719098
2022-08-09T04:07:58.770Z,9.719088
2022-08-09T04:08:58.752Z,9.719185
2022-08-09T04:09:58.751Z,9.719078
2022-08-09T04:11:01.272Z,9.719168
2022-08-09T04:11:58.757Z,9.719266
2022-08-09T04:13:00.997Z,9.719199
2022-08-09T04:14:53.812Z,9.719094
2022-08-09T04:15:01.484Z,9.719157
2022-08-09T04:16:19.509Z,9.719244
2022-08-09T04:16:59.676Z,9.719219
2022-08-09T04:17:58.690Z,9.719246
2022-08-09T04:18:58.653Z,9.719192
2022-08-09T04:19:58.659Z,9.719278
2022-08-09T04:20:58.631Z,9.719338
2022-08-09T04:21:58.666Z,9.719270
2022-08-09T04:22:58.621Z,9.719331
2022-08-09T04:23:58.630Z,9.719246
2022-08-09T04:24:58.614Z,9.719293
2022-08-09T04:25:58.589Z,9.719265
2022-08-09T04:26:58.578Z,9.719232
2022-08-09T04:27:59.776Z,9.719223
2022-08-09T04:29:01.391Z,9.719320
2022-08-09T04:29:59.552Z,9.719294
2022-08-09T04:30:58.535Z,9.719323
2022-08-09T04:31:58.517Z,9.719305
2022-08-09T04:32:58.531Z,9.719319
2022-08-09T04:33:59.456Z,9.719261
2022-08-09T04:34:58.529Z,9.719331
2022-08-09T04:35:58.477Z,9.719302
2022-08-09T04:36:58.483Z,9.719265
2022-08-09T04:37:58.476Z,9.719229
2022-08-09T04:38:59.560Z,9.719236
2022-08-09T04:39:58.451Z,9.719130
2022-08-09T04:40:58.503Z,9.719150
2022-08-09T04:41:59.771Z,9.719110
2022-08-09T04:42:58.410Z,9.719122
2022-08-09T04:44:05.705Z,9.719172
2022-08-09T04:44:59.421Z,9.719212
2022-08-09T04:45:58.396Z,9.719252
2022-08-09T04:47:04.606Z,9.719228
2022-08-09T04:48:03.163Z,9.719267
2022-08-09T04:48:59.379Z,9.719174
2022-08-09T04:49:58.338Z,9.719160
2022-08-09T04:50:58.340Z,9.719175
2022-08-09T04:51:58.327Z,9.719185
2022-08-09T04:52:58.309Z,9.719161
2022-08-09T04:53:58.420Z,9.719205
2022-08-09T04:54:58.780Z,9.719163
2022-08-09T04:55:59.628Z,9.719160
2022-08-09T04:56:58.259Z,9.719193
2022-08-09T04:58:09.257Z,9.719162
2022-08-09T04:58:59.259Z,9.719078
2022-08-09T04:59:58.294Z,9.719000
2022-08-09T05:00:58.229Z,9.719164
2022-08-09T05:01:58.224Z,9.719155
2022-08-09T05:02:58.234Z,9.719110
2022-08-09T05:03:59.233Z,9.719128
2022-08-09T05:04:58.365Z,9.719156
2022-08-09T05:06:04.346Z,9.719194
2022-08-09T05:06:58.176Z,9.719187
2022-08-09T05:07:58.162Z,9.719142
2022-08-09T05:09:00.808Z,9.719092
2022-08-09T05:10:01.723Z,9.719088
2022-08-09T05:10:58.132Z,9.719177
2022-08-09T05:11:59.115Z,9.719164
2022-08-09T05:12:58.113Z,9.719160
2022-08-09T05:13:58.128Z,9.719154
2022-08-09T05:14:58.115Z,9.719237
2022-08-09T05:15:58.080Z,9.719210
2022-08-09T05:16:59.629Z,9.719103
2022-08-09T05:18:55.272Z,9.719092
2022-08-09T05:19:00.183Z,9.719110
2022-08-09T05:19:58.285Z,9.719088
2022-08-09T05:20:58.032Z,9.718958
2022-08-09T05:21:58.049Z,9.719114
2022-08-09T05:23:55.221Z,9.719103
2022-08-09T05:24:01.306Z,9.719065
2022-08-09T05:25:01.105Z,9.719063
2022-08-09T05:25:57.993Z,9.719141
2022-08-09T05:26:58.041Z,9.719006
2022-08-09T05:27:57.967Z,9.718913
2022-08-09T05:28:57.955Z,9.718912
2022-08-09T05:29:57.955Z,9.718806
2022-08-09T05:30:57.964Z,9.718945
2022-08-09T05:31:58.670Z,9.718947
2022-08-09T05:32:58.968Z,9.718982
2022-08-09T05:33:57.928Z,9.718984
2022-08-09T05:34:57.892Z,9.718996
2022-08-09T05:35:57.888Z,9.718952
2022-08-09T05:36:57.884Z,9.718936
2022-08-09T05:37:57.872Z,9.718972
2022-08-09T05:38:57.891Z,9.718956
2022-08-09T05:39:57.892Z,9.718912
2022-08-09T05:40:57.847Z,9.718825
2022-08-09T05:42:01.304Z,9.718917
2022-08-09T05:42:57.829Z,9.718940
2022-08-09T05:43:57.824Z,9.718919
2022-08-09T05:44:57.825Z,9.718886
2022-08-09T05:45:57.980Z,9.718999
2022-08-09T05:46:57.790Z,9.719061
2022-08-09T05:48:01.298Z,9.719049
2022-08-09T05:48:59.360Z,9.718879
2022-08-09T05:50:30.683Z,9.718978
2022-08-09T05:51:29.733Z,9.718969
2022-08-09T05:51:58.748Z,9.718981
2022-08-09T05:52:57.725Z,9.718934
2022-08-09T05:53:58.194Z,9.718814
2022-08-09T05:54:57.738Z,9.719010
2022-08-09T05:55:57.692Z,9.719189
2022-08-09T05:56:57.699Z,9.719327
2022-08-09T05:57:58.325Z,9.719168
2022-08-09T05:58:59.064Z,9.719177
2022-08-09T05:59:57.676Z,9.719327
2022-08-09T06:00:58.164Z,9.719224
2022-08-09T06:01:58.837Z,9.719101
2022-08-09T06:02:57.708Z,9.719156
2022-08-09T06:03:58.280Z,9.719156
2022-08-09T06:04:57.622Z,9.719156
2022-08-09T06:06:06.095Z,9.719089
2022-08-09T06:06:58.605Z,9.719084
2022-08-09T06:08:05.257Z,9.719092
2022-08-09T06:08:58.577Z,9.719144
2022-08-09T06:10:02.049Z,9.719149
2022-08-09T06:10:58.092Z,9.719047
2022-08-09T06:11:58.021Z,9.719115
2022-08-09T06:13:02.895Z,9.719129
2022-08-09T06:13:58.527Z,9.719115
2022-08-09T06:15:00.929Z,9.718987
2022-08-09T06:15:58.507Z,9.719025
2022-08-09T06:16:57.540Z,9.719043
2022-08-09T06:17:57.494Z,9.719043
2022-08-09T06:18:57.504Z,9.719129
2022-08-09T06:19:57.473Z,9.719082
2022-08-09T06:20:58.592Z,9.719020
2022-08-09T06:21:58.753Z,9.719013
2022-08-09T06:22:57.471Z,9.719023
2022-08-09T06:24:01.694Z,9.719046
2022-08-09T06:24:57.431Z,9.719080
2022-08-09T06:25:57.425Z,9.718976
2022-08-09T06:26:57.404Z,9.719047
2022-08-09T06:27:57.407Z,9.718940
2022-08-09T06:29:00.790Z,9.719010
2022-08-09T06:30:09.528Z,9.718954
2022-08-09T06:30:57.382Z,9.719044
2022-08-09T06:32:17.312Z,9.718992
2022-08-09T06:33:00.790Z,9.719040
2022-08-09T06:33:58.370Z,9.719044
2022-08-09T06:34:57.378Z,9.718987
2022-08-09T06:35:58.451Z,9.718920
2022-08-09T06:36:59.720Z,9.718924
2022-08-09T06:38:32.148Z,9.718810
2022-08-09T06:39:19.382Z,9.718921
2022-08-09T06:39:59.798Z,9.718952
2022-08-09T06:40:57.308Z,9.718995
2022-08-09T06:42:08.565Z,9.718946
2022-08-09T06:42:57.270Z,9.719004
2022-08-09T06:43:57.253Z,9.718991
2022-08-09T06:44:57.533Z,9.718895
2022-08-09T06:46:07.478Z,9.719117
2022-08-09T06:46:58.232Z,9.719088
2022-08-09T06:48:00.582Z,9.718994
2022-08-09T06:49:00.031Z,9.718918
2022-08-09T06:50:14.703Z,9.718973
2022-08-09T06:50:58.267Z,9.718967
2022-08-09T06:51:57.180Z,9.719090
2022-08-09T06:52:57.182Z,9.719199
2022-08-09T06:54:00.760Z,9.719340
2022-08-09T06:54:57.157Z,9.719313
2022-08-09T06:55:57.159Z,9.719295
2022-08-09T06:56:57.135Z,9.719070
2022-08-09T06:58:02.214Z,9.718838
2022-08-09T07:00:51.426Z,9.719214
2022-08-09T07:00:51.562Z,9.718907
2022-08-09T07:00:59.658Z,9.719233
2022-08-09T07:02:01.253Z,9.719215
2022-08-09T07:02:58.074Z,9.719105
2022-08-09T07:04:03.715Z,9.719214
2022-08-09T07:04:58.090Z,9.719236
2022-08-09T07:06:02.802Z,9.719213
2022-08-09T07:06:59.888Z,9.719222
2022-08-09T07:08:00.742Z,9.719268
2022-08-09T07:08:57.038Z,9.719256
2022-08-09T07:10:01.215Z,9.719227
2022-08-09T07:10:58.007Z,9.719170
2022-08-09T07:11:57.025Z,9.719187
2022-08-09T07:12:57.919Z,9.719251
2022-08-09T07:14:05.330Z,9.719213
2022-08-09T07:14:57.971Z,9.719214
2022-08-09T07:16:42.520Z,9.719179
2022-08-09T07:16:58.482Z,9.719157
2022-08-09T07:18:02.411Z,9.719091
2022-08-09T07:18:57.933Z,9.719136
2022-08-09T07:19:56.923Z,9.719152
2022-08-09T07:20:56.931Z,9.719151
2022-08-09T07:21:58.999Z,9.719169
2022-08-09T07:22:57.253Z,9.719119
2022-08-09T07:23:58.243Z,9.719147
2022-08-09T07:24:56.875Z,9.719168
2022-08-09T07:26:02.423Z,9.719171
2022-08-09T07:26:57.868Z,9.719168
2022-08-09T07:27:56.873Z,9.719179
2022-08-09T07:29:08.304Z,9.719147
2022-08-09T07:29:58.523Z,9.719117
2022-08-09T07:30:56.825Z,9.719160
2022-08-09T07:31:56.853Z,9.719176
2022-08-09T07:32:56.800Z,9.719131
2022-08-09T07:33:56.829Z,9.719118
2022-08-09T07:34:56.809Z,9.719192
2022-08-09T07:35:56.790Z,9.719098
2022-08-09T07:36:56.785Z,9.719095
2022-08-09T07:37:59.382Z,9.719131
2022-08-09T07:39:00.903Z,9.719151
2022-08-09T07:39:58.795Z,9.719199
2022-08-09T07:41:12.134Z,9.719213
2022-08-09T07:41:58.743Z,9.719194
2022-08-09T07:42:56.709Z,9.719119
2022-08-09T07:43:56.798Z,9.719199
2022-08-09T07:45:01.408Z,9.719211
2022-08-09T07:46:02.079Z,9.719235
2022-08-09T07:46:56.701Z,9.719188
2022-08-09T07:48:01.634Z,9.719208
2022-08-09T07:48:59.322Z,9.719190
2022-08-09T07:50:08.060Z,9.719165
2022-08-09T07:51:09.041Z,9.719211
2022-08-09T07:52:04.683Z,9.719244
2022-08-09T07:53:02.279Z,9.719256
2022-08-09T07:54:06.274Z,9.719123
2022-08-09T07:54:57.659Z,9.719127
2022-08-09T07:56:03.429Z,9.719175
2022-08-09T07:56:58.616Z,9.719261
2022-08-09T07:57:58.413Z,9.719315
2022-08-09T07:58:56.586Z,9.719345
2022-08-09T08:00:03.781Z,9.719144
2022-08-09T08:01:06.285Z,9.719231
2022-08-09T08:01:57.627Z,9.719097
2022-08-09T08:02:56.562Z,9.719218
2022-08-09T08:03:56.511Z,9.719276
2022-08-09T08:04:56.514Z,9.719307
2022-08-09T08:05:58.269Z,9.719281
2022-08-09T08:07:00.223Z,9.719352
2022-08-09T08:09:01.829Z,9.719181
2022-08-09T08:09:03.830Z,9.719026
2022-08-09T08:10:07.964Z,9.719124
2022-08-09T08:11:15.255Z,9.719209
2022-08-09T08:12:24.211Z,9.719275
2022-08-09T08:12:56.655Z,9.719068
2022-08-09T08:13:57.566Z,9.719097
2022-08-09T08:14:57.083Z,9.719240
2022-08-09T08:15:56.415Z,9.719209
2022-08-09T08:17:07.681Z,9.719166
2022-08-09T08:17:58.545Z,9.719201
2022-08-09T08:18:56.408Z,9.719274
2022-08-09T08:19:56.413Z,9.719177
2022-08-09T08:20:56.386Z,9.719159
2022-08-09T08:21:56.366Z,9.719193
2022-08-09T08:22:56.430Z,9.719393
2022-08-09T08:23:57.342Z,9.719365
2022-08-09T08:24:57.501Z,9.719196
2022-08-09T08:26:08.276Z,9.719090
2022-08-09T08:26:57.374Z,9.719131
2022-08-09T08:27:57.352Z,9.719154
2022-08-09T08:28:56.306Z,9.719161
2022-08-09T08:29:56.286Z,9.719178
2022-08-09T08:30:56.309Z,9.719154
2022-08-09T08:32:04.147Z,9.719254
2022-08-09T08:32:57.256Z,9.719268
2022-08-09T08:33:56.311Z,9.719301
2022-08-09T08:34:58.732Z,9.719247
2022-08-09T08:36:00.274Z,9.719185
2022-08-09T08:36:56.231Z,9.719201
2022-08-09T08:38:01.817Z,9.719298
2022-08-09T08:38:57.213Z,9.719358
2022-08-09T08:39:56.316Z,9.719349
2022-08-09T08:40:56.187Z,9.719343
2022-08-09T08:41:58.843Z,9.719368
2022-08-09T08:42:56.172Z,9.719358
2022-08-09T08:44:00.596Z,9.719278
2022-08-09T08:44:58.167Z,9.719178
2022-08-09T08:46:03.954Z,9.719180
2022-08-09T08:47:03.133Z,9.719287
2022-08-09T08:47:58.859Z,9.719305
2022-08-09T08:48:56.113Z,9.719240
2022-08-09T08:49:56.102Z,9.719322
2022-08-09T08:50:56.114Z,9.719636
2022-08-09T08:52:00.153Z,9.719891
2022-08-09T08:52:59.560Z,9.719709
2022-08-09T08:54:04.385Z,9.719517
2022-08-09T08:54:57.117Z,9.719523
2022-08-09T08:55:56.052Z,9.719446
2022-08-09T08:56:56.048Z,9.719643
2022-08-09T08:57:57.281Z,9.719634
2022-08-09T08:58:56.063Z,9.719569
2022-08-09T08:59:57.420Z,9.719669
2022-08-09T09:00:57.082Z,9.719604
2022-08-09T09:01:59.586Z,9.719440
2022-08-09T09:02:56.177Z,9.719381
2022-08-09T09:03:56.151Z,9.719030
2022-08-09T09:04:55.986Z,9.719202
2022-08-09T09:05:58.931Z,9.719290
2022-08-09T09:06:56.958Z,9.719398
2022-08-09T09:07:55.945Z,9.719402
2022-08-09T09:08:59.731Z,9.719255
2022-08-09T09:09:59.523Z,9.719198
2022-08-09T09:10:56.975Z,9.719403
2022-08-09T09:11:55.905Z,9.719234
2022-08-09T09:12:55.924Z,9.719357
2022-08-09T09:13:58.462Z,9.719270
2022-08-09T09:14:56.902Z,9.719324
2022-08-09T09:15:55.871Z,9.719352
2022-08-09T09:16:55.862Z,9.719322
2022-08-09T09:17:55.860Z,9.719622
2022-08-09T09:19:10.826Z,9.719422
2022-08-09T09:19:57.858Z,9.719303
2022-08-09T09:20:55.821Z,9.719040
2022-08-09T09:21:57.396Z,9.719396
2022-08-09T09:22:55.873Z,9.719362
2022-08-09T09:23:58.216Z,9.719317
2022-08-09T09:26:00.507Z,9.719321
2022-08-09T09:26:02.378Z,9.719473
2022-08-09T09:26:59.004Z,9.719411
2022-08-09T09:28:06.017Z,9.719367
2022-08-09T09:29:04.051Z,9.719198
2022-08-09T09:30:14.129Z,9.719286
2022-08-09T09:30:57.731Z,9.719277
2022-08-09T09:32:06.144Z,9.719281
2022-08-09T09:32:56.754Z,9.719330
2022-08-09T09:33:56.925Z,9.719196
2022-08-09T09:34:55.712Z,9.719205
2022-08-09T09:36:02.433Z,9.718801
2022-08-09T09:36:55.686Z,9.718904
2022-08-09T09:37:55.702Z,9.719282
2022-08-09T09:38:55.656Z,9.719254
2022-08-09T09:39:57.708Z,9.719084
2022-08-09T09:40:55.645Z,9.719034
2022-08-09T09:41:55.636Z,9.719303
2022-08-09T09:42:55.614Z,9.719288
2022-08-09T09:44:10.780Z,9.718945
2022-08-09T09:44:56.601Z,9.719250
2022-08-09T09:45:57.308Z,9.718978
2022-08-09T09:46:57.652Z,9.719274
2022-08-09T09:47:58.377Z,9.719021
2022-08-09T09:48:55.567Z,9.719295
2022-08-09T09:50:13.718Z,9.719166
2022-08-09T09:50:56.542Z,9.719288
2022-08-09T09:51:55.524Z,9.719101
2022-08-09T09:52:56.129Z,9.719064
2022-08-09T09:54:00.825Z,9.718909
2022-08-09T09:54:56.507Z,9.719049
2022-08-09T09:55:57.694Z,9.719060
2022-08-09T09:58:02.347Z,9.719091
2022-08-09T09:58:03.080Z,9.718950
2022-08-09T09:58:55.467Z,9.718856
2022-08-09T09:59:55.456Z,9.718749
2022-08-09T10:00:59.079Z,9.719179
2022-08-09T10:01:55.425Z,9.719195
2022-08-09T10:02:55.470Z,9.719176
2022-08-09T10:03:57.713Z,9.719181
2022-08-09T10:04:55.408Z,9.719257
2022-08-09T10:06:03.522Z,9.719196
2022-08-09T10:06:56.394Z,9.719172
2022-08-09T10:08:01.070Z,9.719239
2022-08-09T10:08:57.648Z,9.719123
2022-08-09T10:09:56.361Z,9.719069
2022-08-09T10:10:55.628Z,9.719072
2022-08-09T10:12:11.459Z,9.719049
2022-08-09T10:12:57.915Z,9.718989
2022-08-09T10:13:55.324Z,9.719130
2022-08-09T10:14:55.340Z,9.719126
2022-08-09T10:16:55.438Z,9.719293
2022-08-09T10:17:11.421Z,9.719244
2022-08-09T10:17:57.284Z,9.719275
2022-08-09T10:18:55.271Z,9.719150
2022-08-09T10:19:57.042Z,9.719275
2022-08-09T10:20:55.249Z,9.719478
2022-08-09T10:21:55.255Z,9.719171
2022-08-09T10:23:00.355Z,9.719220
2022-08-09T10:23:56.234Z,9.719141
2022-08-09T10:24:55.228Z,9.719308
2022-08-09T10:26:07.678Z,9.719314
2022-08-09T10:26:55.193Z,9.719447
2022-08-09T10:27:58.037Z,9.719502
2022-08-09T10:29:35.934Z,9.719322
2022-08-09T10:30:43.723Z,9.719285
2022-08-09T10:32:56.308Z,9.719151
2022-08-09T10:34:10.987Z,9.719261
2022-08-09T10:34:56.139Z,9.719256
2022-08-09T10:35:55.137Z,9.719141
2022-08-09T10:36:55.149Z,9.719056
2022-08-09T10:37:55.099Z,9.719062
2022-08-09T10:38:59.665Z,9.719127
2022-08-09T10:39:55.093Z,9.719193
2022-08-09T10:40:56.497Z,9.719164
2022-08-09T10:41:55.071Z,9.719070
2022-08-09T10:42:55.055Z,9.719102
2022-08-09T10:44:00.106Z,9.719065
2022-08-09T10:44:56.018Z,9.719084
2022-08-09T10:45:59.965Z,9.719136
2022-08-09T10:46:57.690Z,9.719254
2022-08-09T10:48:17.390Z,9.719134
2022-08-09T10:48:56.024Z,9.719131
2022-08-09T10:49:54.994Z,9.719095
2022-08-09T10:50:54.963Z,9.719091
2022-08-09T10:51:54.958Z,9.719069
2022-08-09T10:52:55.138Z,9.719102
2022-08-09T10:53:55.121Z,9.719082
2022-08-09T10:54:55.932Z,9.719080
2022-08-09T10:55:58.561Z,9.719142
2022-08-09T10:56:55.901Z,9.719120
2022-08-09T10:57:56.066Z,9.719160
2022-08-09T10:58:55.926Z,9.719166
2022-08-09T10:59:57.875Z,9.719225
2022-08-09T11:03:03.326Z,9.719222
2022-08-09T11:03:11.890Z,9.719213
2022-08-09T11:03:13.389Z,9.719212
2022-08-09T11:03:59.942Z,9.719146
2022-08-09T11:04:56.678Z,9.719154
2022-08-09T11:05:59.956Z,9.719110
2022-08-09T11:06:55.854Z,9.719173
2022-08-09T11:07:56.793Z,9.719297
2022-08-09T11:08:54.784Z,9.718491
2022-08-09T11:09:56.445Z,9.718496
2022-08-09T11:10:59.009Z,9.719609
2022-08-09T11:11:54.776Z,9.719426
2022-08-09T11:12:54.748Z,9.719354
2022-08-09T11:13:55.067Z,9.718406
2022-08-09T11:14:54.742Z,9.719302
2022-08-09T11:16:06.443Z,9.719467
2022-08-09T11:16:55.706Z,9.719206
2022-08-09T11:17:56.832Z,9.718748
2022-08-09T11:18:54.715Z,9.718599
2022-08-09T11:20:20.011Z,9.718728
2022-08-09T11:20:54.670Z,9.718562
2022-08-09T11:21:55.229Z,9.718562
2022-08-09T11:22:57.083Z,9.719331
2022-08-09T11:23:54.659Z,9.719485
2022-08-09T11:24:54.655Z,9.719540
2022-08-09T11:25:54.932Z,9.719417
2022-08-09T11:26:55.089Z,9.719349
2022-08-09T11:28:04.836Z,9.719396
2022-08-09T11:28:57.043Z,9.719174
2022-08-09T11:30:01.150Z,9.719069
2022-08-09T11:30:55.577Z,9.718896
2022-08-09T11:31:54.874Z,9.718896
2022-08-09T11:32:54.568Z,9.718896
2022-08-09T11:33:54.542Z,9.718896
2022-08-09T11:34:54.524Z,9.718896
2022-08-09T11:35:54.533Z,9.718896
2022-08-09T11:36:54.511Z,9.718896
2022-08-09T11:37:54.614Z,9.718848
2022-08-09T11:38:54.490Z,9.718945
2022-08-09T11:39:54.538Z,9.719111
2022-08-09T11:40:54.929Z,9.718874
2022-08-09T11:41:58.526Z,9.719253
2022-08-09T11:42:55.483Z,9.718986
2022-08-09T11:43:54.473Z,9.718809
2022-08-09T11:44:54.440Z,9.719030
2022-08-09T11:45:54.450Z,9.718909